sensor_id;sensor_type;location;lat;lon;timestamp;P1;durP1;ratioP1;P2;durP2;ratioP2
45114;SDS011;30877;43.706;10.780;2024-03-07T00:02:21;5.30;;;3.10;;
45114;SDS011;30877;43.706;10.780;2024-03-07T00:04:51;3.47;;;2.70;;
45114;SDS011;30877;43.706;10.780;2024-03-07T00:07:22;4.05;;;2.55;;
45114;SDS011;30877;43.706;10.780;2024-03-07T00:09:51;4.43;;;2.80;;
45114;SDS011;30877;43.706;10.780;2024-03-07T00:12:21;5.20;;;3.15;;
45114;SDS011;30877;43.706;10.780;2024-03-07T00:14:51;5.00;;;3.63;;
45114;SDS011;30877;43.706;10.780;2024-03-07T00:17:19;5.95;;;3.40;;
45114;SDS011;30877;43.706;10.780;2024-03-07T00:19:48;7.55;;;3.75;;
45114;SDS011;30877;43.706;10.780;2024-03-07T00:22:16;7.22;;;3.78;;
45114;SDS011;30877;43.706;10.780;2024-03-07T00:24:48;5.10;;;3.10;;
45114;SDS011;30877;43.706;10.780;2024-03-07T00:27:19;3.53;;;1.90;;
45114;SDS011;30877;43.706;10.780;2024-03-07T00:29:49;5.15;;;2.17;;
45114;SDS011;30877;43.706;10.780;2024-03-07T00:32:21;3.08;;;1.85;;
45114;SDS011;30877;43.706;10.780;2024-03-07T00:34:53;3.95;;;1.70;;
45114;SDS011;30877;43.706;10.780;2024-03-07T00:37:21;5.60;;;2.13;;
45114;SDS011;30877;43.706;10.780;2024-03-07T00:39:55;2.15;;;1.55;;
45114;SDS011;30877;43.706;10.780;2024-03-07T00:42:27;2.25;;;1.20;;
45114;SDS011;30877;43.706;10.780;2024-03-07T00:44:57;2.38;;;1.40;;
45114;SDS011;30877;43.706;10.780;2024-03-07T00:47:26;2.67;;;1.52;;
45114;SDS011;30877;43.706;10.780;2024-03-07T00:49:55;1.88;;;1.48;;
45114;SDS011;30877;43.706;10.780;2024-03-07T00:52:26;3.75;;;1.75;;
45114;SDS011;30877;43.706;10.780;2024-03-07T00:54:59;4.43;;;2.03;;
45114;SDS011;30877;43.706;10.780;2024-03-07T00:57:29;4.47;;;2.13;;
45114;SDS011;30877;43.706;10.780;2024-03-07T00:59:59;3.67;;;1.98;;
45114;SDS011;30877;43.706;10.780;2024-03-07T01:02:29;4.10;;;2.40;;
45114;SDS011;30877;43.706;10.780;2024-03-07T01:04:58;3.45;;;2.13;;
45114;SDS011;30877;43.706;10.780;2024-03-07T01:07:27;2.60;;;1.70;;
45114;SDS011;30877;43.706;10.780;2024-03-07T01:09:59;3.05;;;1.88;;
45114;SDS011;30877;43.706;10.780;2024-03-07T01:12:29;2.85;;;1.60;;
45114;SDS011;30877;43.706;10.780;2024-03-07T01:15:02;4.32;;;1.77;;
45114;SDS011;30877;43.706;10.780;2024-03-07T01:17:32;5.45;;;2.60;;
45114;SDS011;30877;43.706;10.780;2024-03-07T01:20:03;5.20;;;2.50;;
45114;SDS011;30877;43.706;10.780;2024-03-07T01:22:36;3.92;;;2.63;;
45114;SDS011;30877;43.706;10.780;2024-03-07T01:25:07;4.50;;;2.63;;
45114;SDS011;30877;43.706;10.780;2024-03-07T01:27:38;5.25;;;3.28;;
45114;SDS011;30877;43.706;10.780;2024-03-07T01:30:07;5.38;;;3.60;;
45114;SDS011;30877;43.706;10.780;2024-03-07T01:32:36;7.30;;;4.25;;
45114;SDS011;30877;43.706;10.780;2024-03-07T01:35:07;5.25;;;3.20;;
45114;SDS011;30877;43.706;10.780;2024-03-07T01:37:36;6.22;;;3.92;;
45114;SDS011;30877;43.706;10.780;2024-03-07T01:40:08;4.47;;;3.05;;
45114;SDS011;30877;43.706;10.780;2024-03-07T01:42:39;3.30;;;2.30;;
45114;SDS011;30877;43.706;10.780;2024-03-07T01:45:09;3.80;;;2.60;;
45114;SDS011;30877;43.706;10.780;2024-03-07T01:47:39;2.95;;;2.08;;
45114;SDS011;30877;43.706;10.780;2024-03-07T01:50:10;4.88;;;3.15;;
45114;SDS011;30877;43.706;10.780;2024-03-07T01:52:39;6.93;;;2.72;;
45114;SDS011;30877;43.706;10.780;2024-03-07T01:55:12;4.65;;;2.50;;
45114;SDS011;30877;43.706;10.780;2024-03-07T01:57:41;4.38;;;2.75;;
45114;SDS011;30877;43.706;10.780;2024-03-07T02:00:12;4.97;;;3.15;;
45114;SDS011;30877;43.706;10.780;2024-03-07T02:02:41;5.25;;;3.40;;
45114;SDS011;30877;43.706;10.780;2024-03-07T02:05:11;4.55;;;3.30;;
45114;SDS011;30877;43.706;10.780;2024-03-07T02:07:41;6.20;;;3.38;;
45114;SDS011;30877;43.706;10.780;2024-03-07T02:10:13;5.70;;;3.63;;
45114;SDS011;30877;43.706;10.780;2024-03-07T02:12:43;7.32;;;4.10;;
45114;SDS011;30877;43.706;10.780;2024-03-07T02:15:14;6.15;;;4.30;;
45114;SDS011;30877;43.706;10.780;2024-03-07T02:17:44;7.78;;;4.60;;
45114;SDS011;30877;43.706;10.780;2024-03-07T02:20:15;5.63;;;3.78;;
45114;SDS011;30877;43.706;10.780;2024-03-07T02:22:46;6.10;;;4.45;;
45114;SDS011;30877;43.706;10.780;2024-03-07T02:25:15;6.25;;;3.88;;
45114;SDS011;30877;43.706;10.780;2024-03-07T02:27:45;5.90;;;3.95;;
45114;SDS011;30877;43.706;10.780;2024-03-07T02:30:15;5.38;;;4.30;;
45114;SDS011;30877;43.706;10.780;2024-03-07T02:32:46;5.43;;;4.00;;
45114;SDS011;30877;43.706;10.780;2024-03-07T02:35:19;7.05;;;4.15;;
45114;SDS011;30877;43.706;10.780;2024-03-07T02:37:50;6.15;;;4.10;;
45114;SDS011;30877;43.706;10.780;2024-03-07T02:40:19;5.97;;;3.75;;
45114;SDS011;30877;43.706;10.780;2024-03-07T02:42:49;5.38;;;3.47;;
45114;SDS011;30877;43.706;10.780;2024-03-07T02:45:19;4.82;;;2.95;;
45114;SDS011;30877;43.706;10.780;2024-03-07T02:47:49;4.18;;;2.75;;
45114;SDS011;30877;43.706;10.780;2024-03-07T02:50:23;6.18;;;2.85;;
45114;SDS011;30877;43.706;10.780;2024-03-07T02:52:54;7.38;;;3.15;;
45114;SDS011;30877;43.706;10.780;2024-03-07T02:55:23;6.90;;;3.65;;
45114;SDS011;30877;43.706;10.780;2024-03-07T02:57:52;5.50;;;3.40;;
45114;SDS011;30877;43.706;10.780;2024-03-07T03:00:22;5.50;;;3.17;;
45114;SDS011;30877;43.706;10.780;2024-03-07T03:02:55;5.68;;;3.40;;
45114;SDS011;30877;43.706;10.780;2024-03-07T03:05:26;4.53;;;2.67;;
45114;SDS011;30877;43.706;10.780;2024-03-07T03:07:58;6.05;;;3.42;;
45114;SDS011;30877;43.706;10.780;2024-03-07T03:10:28;5.35;;;2.78;;
45114;SDS011;30877;43.706;10.780;2024-03-07T03:12:59;3.42;;;2.67;;
45114;SDS011;30877;43.706;10.780;2024-03-07T03:15:29;3.35;;;2.45;;
45114;SDS011;30877;43.706;10.780;2024-03-07T03:17:58;3.75;;;2.63;;
45114;SDS011;30877;43.706;10.780;2024-03-07T03:20:29;3.72;;;2.67;;
45114;SDS011;30877;43.706;10.780;2024-03-07T03:23:08;3.80;;;2.63;;
45114;SDS011;30877;43.706;10.780;2024-03-07T03:25:47;3.33;;;2.45;;
45114;SDS011;30877;43.706;10.780;2024-03-07T03:28:18;3.33;;;2.40;;
45114;SDS011;30877;43.706;10.780;2024-03-07T03:30:48;2.50;;;2.00;;
45114;SDS011;30877;43.706;10.780;2024-03-07T03:33:20;2.70;;;1.75;;
45114;SDS011;30877;43.706;10.780;2024-03-07T03:35:48;2.10;;;1.52;;
45114;SDS011;30877;43.706;10.780;2024-03-07T03:38:20;3.08;;;1.55;;
45114;SDS011;30877;43.706;10.780;2024-03-07T03:40:50;2.38;;;1.17;;
45114;SDS011;30877;43.706;10.780;2024-03-07T03:43:20;1.67;;;1.05;;
45114;SDS011;30877;43.706;10.780;2024-03-07T03:45:51;1.33;;;0.90;;
45114;SDS011;30877;43.706;10.780;2024-03-07T03:48:22;1.10;;;0.90;;
45114;SDS011;30877;43.706;10.780;2024-03-07T03:50:53;1.08;;;0.60;;
45114;SDS011;30877;43.706;10.780;2024-03-07T03:53:27;1.45;;;0.80;;
45114;SDS011;30877;43.706;10.780;2024-03-07T03:55:58;1.50;;;0.80;;
45114;SDS011;30877;43.706;10.780;2024-03-07T03:58:29;0.93;;;0.80;;
45114;SDS011;30877;43.706;10.780;2024-03-07T04:00:58;1.55;;;0.82;;
45114;SDS011;30877;43.706;10.780;2024-03-07T04:03:28;1.13;;;0.90;;
45114;SDS011;30877;43.706;10.780;2024-03-07T04:05:58;1.90;;;0.90;;
45114;SDS011;30877;43.706;10.780;2024-03-07T04:08:30;1.77;;;1.30;;
45114;SDS011;30877;43.706;10.780;2024-03-07T04:10:59;1.33;;;1.10;;
45114;SDS011;30877;43.706;10.780;2024-03-07T04:13:28;2.13;;;1.13;;
45114;SDS011;30877;43.706;10.780;2024-03-07T04:15:58;1.95;;;1.20;;
45114;SDS011;30877;43.706;10.780;2024-03-07T04:18:27;2.28;;;1.25;;
45114;SDS011;30877;43.706;10.780;2024-03-07T04:20:58;2.28;;;1.55;;
45114;SDS011;30877;43.706;10.780;2024-03-07T04:23:27;3.75;;;1.50;;
45114;SDS011;30877;43.706;10.780;2024-03-07T04:25:57;4.15;;;1.77;;
45114;SDS011;30877;43.706;10.780;2024-03-07T04:28:28;2.72;;;2.08;;
45114;SDS011;30877;43.706;10.780;2024-03-07T04:30:58;5.07;;;2.33;;
45114;SDS011;30877;43.706;10.780;2024-03-07T04:33:27;3.78;;;2.53;;
45114;SDS011;30877;43.706;10.780;2024-03-07T04:35:57;3.83;;;2.63;;
45114;SDS011;30877;43.706;10.780;2024-03-07T04:38:29;3.35;;;2.33;;
45114;SDS011;30877;43.706;10.780;2024-03-07T04:41:00;3.38;;;2.45;;
45114;SDS011;30877;43.706;10.780;2024-03-07T04:43:31;3.90;;;2.88;;
45114;SDS011;30877;43.706;10.780;2024-03-07T04:46:00;4.03;;;2.35;;
45114;SDS011;30877;43.706;10.780;2024-03-07T04:48:30;3.03;;;2.17;;
45114;SDS011;30877;43.706;10.780;2024-03-07T04:51:00;5.20;;;2.55;;
45114;SDS011;30877;43.706;10.780;2024-03-07T04:53:29;3.17;;;2.45;;
45114;SDS011;30877;43.706;10.780;2024-03-07T04:55:58;4.13;;;2.45;;
45114;SDS011;30877;43.706;10.780;2024-03-07T04:58:30;3.92;;;2.50;;
45114;SDS011;30877;43.706;10.780;2024-03-07T05:00:59;3.88;;;2.70;;
45114;SDS011;30877;43.706;10.780;2024-03-07T05:03:27;2.92;;;2.10;;
45114;SDS011;30877;43.706;10.780;2024-03-07T05:05:57;3.00;;;2.50;;
45114;SDS011;30877;43.706;10.780;2024-03-07T05:08:28;4.07;;;2.15;;
45114;SDS011;30877;43.706;10.780;2024-03-07T05:10:57;2.42;;;2.17;;
45114;SDS011;30877;43.706;10.780;2024-03-07T05:13:28;2.45;;;2.05;;
45114;SDS011;30877;43.706;10.780;2024-03-07T05:15:58;2.65;;;2.10;;
45114;SDS011;30877;43.706;10.780;2024-03-07T05:18:29;3.22;;;2.03;;
45114;SDS011;30877;43.706;10.780;2024-03-07T05:20:59;2.70;;;1.90;;
45114;SDS011;30877;43.706;10.780;2024-03-07T05:23:47;3.40;;;2.60;;
45114;SDS011;30877;43.706;10.780;2024-03-07T05:26:17;3.20;;;2.47;;
45114;SDS011;30877;43.706;10.780;2024-03-07T05:28:49;3.13;;;2.22;;
45114;SDS011;30877;43.706;10.780;2024-03-07T05:31:19;2.25;;;1.70;;
45114;SDS011;30877;43.706;10.780;2024-03-07T05:33:50;2.58;;;2.17;;
45114;SDS011;30877;43.706;10.780;2024-03-07T05:36:19;2.50;;;1.90;;
45114;SDS011;30877;43.706;10.780;2024-03-07T05:38:48;2.97;;;1.90;;
45114;SDS011;30877;43.706;10.780;2024-03-07T05:41:21;2.83;;;2.10;;
45114;SDS011;30877;43.706;10.780;2024-03-07T05:43:52;2.10;;;1.70;;
45114;SDS011;30877;43.706;10.780;2024-03-07T05:46:24;2.85;;;2.33;;
45114;SDS011;30877;43.706;10.780;2024-03-07T05:48:54;3.17;;;2.20;;
45114;SDS011;30877;43.706;10.780;2024-03-07T05:51:27;4.30;;;2.53;;
45114;SDS011;30877;43.706;10.780;2024-03-07T05:53:59;3.53;;;2.30;;
45114;SDS011;30877;43.706;10.780;2024-03-07T05:56:28;3.08;;;2.35;;
45114;SDS011;30877;43.706;10.780;2024-03-07T05:58:59;2.97;;;2.30;;
45114;SDS011;30877;43.706;10.780;2024-03-07T06:01:33;2.70;;;2.08;;
45114;SDS011;30877;43.706;10.780;2024-03-07T06:04:02;2.33;;;1.83;;
45114;SDS011;30877;43.706;10.780;2024-03-07T06:06:35;4.10;;;2.20;;
45114;SDS011;30877;43.706;10.780;2024-03-07T06:09:05;5.28;;;2.58;;
45114;SDS011;30877;43.706;10.780;2024-03-07T06:11:38;4.15;;;2.75;;
45114;SDS011;30877;43.706;10.780;2024-03-07T06:14:12;3.63;;;2.40;;
45114;SDS011;30877;43.706;10.780;2024-03-07T06:16:42;2.40;;;2.10;;
45114;SDS011;30877;43.706;10.780;2024-03-07T06:19:10;2.95;;;1.80;;
45114;SDS011;30877;43.706;10.780;2024-03-07T06:21:40;2.85;;;1.92;;
45114;SDS011;30877;43.706;10.780;2024-03-07T06:24:08;2.22;;;1.75;;
45114;SDS011;30877;43.706;10.780;2024-03-07T06:26:38;2.38;;;1.77;;
45114;SDS011;30877;43.706;10.780;2024-03-07T06:29:27;3.53;;;2.10;;
45114;SDS011;30877;43.706;10.780;2024-03-07T06:31:56;4.13;;;2.40;;
45114;SDS011;30877;43.706;10.780;2024-03-07T06:34:24;2.67;;;1.63;;
45114;SDS011;30877;43.706;10.780;2024-03-07T06:36:54;3.08;;;2.08;;
45114;SDS011;30877;43.706;10.780;2024-03-07T06:39:25;2.42;;;1.92;;
45114;SDS011;30877;43.706;10.780;2024-03-07T06:41:54;3.33;;;2.28;;
45114;SDS011;30877;43.706;10.780;2024-03-07T06:44:27;5.88;;;2.15;;
45114;SDS011;30877;43.706;10.780;2024-03-07T06:46:56;3.00;;;1.92;;
45114;SDS011;30877;43.706;10.780;2024-03-07T06:49:25;5.32;;;2.88;;
45114;SDS011;30877;43.706;10.780;2024-03-07T06:51:55;2.70;;;2.10;;
45114;SDS011;30877;43.706;10.780;2024-03-07T06:54:25;5.55;;;2.53;;
45114;SDS011;30877;43.706;10.780;2024-03-07T06:56:54;4.15;;;2.25;;
45114;SDS011;30877;43.706;10.780;2024-03-07T06:59:24;2.72;;;2.10;;
45114;SDS011;30877;43.706;10.780;2024-03-07T07:01:55;3.80;;;2.13;;
45114;SDS011;30877;43.706;10.780;2024-03-07T07:04:26;5.07;;;1.98;;
45114;SDS011;30877;43.706;10.780;2024-03-07T07:06:59;3.75;;;2.80;;
45114;SDS011;30877;43.706;10.780;2024-03-07T07:09:28;3.22;;;2.40;;
45114;SDS011;30877;43.706;10.780;2024-03-07T07:11:56;3.88;;;2.30;;
45114;SDS011;30877;43.706;10.780;2024-03-07T07:14:25;5.07;;;2.97;;
45114;SDS011;30877;43.706;10.780;2024-03-07T07:16:55;3.97;;;2.10;;
45114;SDS011;30877;43.706;10.780;2024-03-07T07:19:26;2.67;;;2.15;;
45114;SDS011;30877;43.706;10.780;2024-03-07T07:21:55;3.83;;;2.13;;
45114;SDS011;30877;43.706;10.780;2024-03-07T07:24:23;3.90;;;1.88;;
45114;SDS011;30877;43.706;10.780;2024-03-07T07:26:53;3.05;;;1.83;;
45114;SDS011;30877;43.706;10.780;2024-03-07T07:29:23;3.25;;;2.10;;
45114;SDS011;30877;43.706;10.780;2024-03-07T07:31:54;3.70;;;2.30;;
45114;SDS011;30877;43.706;10.780;2024-03-07T07:34:24;5.88;;;2.97;;
45114;SDS011;30877;43.706;10.780;2024-03-07T07:36:53;3.28;;;2.05;;
45114;SDS011;30877;43.706;10.780;2024-03-07T07:39:21;3.40;;;2.33;;
45114;SDS011;30877;43.706;10.780;2024-03-07T07:41:50;4.55;;;2.20;;
45114;SDS011;30877;43.706;10.780;2024-03-07T07:44:20;4.40;;;2.15;;
45114;SDS011;30877;43.706;10.780;2024-03-07T07:46:50;3.90;;;2.35;;
45114;SDS011;30877;43.706;10.780;2024-03-07T07:49:20;2.42;;;1.83;;
45114;SDS011;30877;43.706;10.780;2024-03-07T07:51:48;2.92;;;2.08;;
45114;SDS011;30877;43.706;10.780;2024-03-07T07:54:18;3.47;;;2.05;;
45114;SDS011;30877;43.706;10.780;2024-03-07T07:56:48;3.95;;;2.50;;
45114;SDS011;30877;43.706;10.780;2024-03-07T07:59:17;3.60;;;2.33;;
45114;SDS011;30877;43.706;10.780;2024-03-07T08:01:46;4.10;;;1.80;;
45114;SDS011;30877;43.706;10.780;2024-03-07T08:04:16;2.45;;;1.85;;
45114;SDS011;30877;43.706;10.780;2024-03-07T08:06:46;3.83;;;2.15;;
45114;SDS011;30877;43.706;10.780;2024-03-07T08:09:15;3.38;;;2.05;;
45114;SDS011;30877;43.706;10.780;2024-03-07T08:11:43;4.72;;;2.15;;
45114;SDS011;30877;43.706;10.780;2024-03-07T08:14:13;3.47;;;1.65;;
45114;SDS011;30877;43.706;10.780;2024-03-07T08:16:42;3.88;;;2.17;;
45114;SDS011;30877;43.706;10.780;2024-03-07T08:19:11;4.82;;;2.38;;
45114;SDS011;30877;43.706;10.780;2024-03-07T08:21:41;4.20;;;2.58;;
45114;SDS011;30877;43.706;10.780;2024-03-07T08:24:12;4.78;;;2.83;;
45114;SDS011;30877;43.706;10.780;2024-03-07T08:26:41;3.70;;;2.55;;
45114;SDS011;30877;43.706;10.780;2024-03-07T08:29:12;4.82;;;2.58;;
45114;SDS011;30877;43.706;10.780;2024-03-07T08:31:41;4.18;;;2.60;;
45114;SDS011;30877;43.706;10.780;2024-03-07T08:34:12;5.05;;;2.75;;
45114;SDS011;30877;43.706;10.780;2024-03-07T08:36:41;4.50;;;2.67;;
45114;SDS011;30877;43.706;10.780;2024-03-07T08:39:09;4.03;;;2.58;;
45114;SDS011;30877;43.706;10.780;2024-03-07T08:41:40;4.90;;;3.05;;
45114;SDS011;30877;43.706;10.780;2024-03-07T08:44:12;4.38;;;2.63;;
45114;SDS011;30877;43.706;10.780;2024-03-07T08:46:40;4.07;;;2.90;;
45114;SDS011;30877;43.706;10.780;2024-03-07T08:49:10;3.65;;;3.10;;
45114;SDS011;30877;43.706;10.780;2024-03-07T08:51:41;5.22;;;2.65;;
45114;SDS011;30877;43.706;10.780;2024-03-07T08:54:09;4.20;;;2.65;;
45114;SDS011;30877;43.706;10.780;2024-03-07T08:56:39;4.25;;;2.75;;
45114;SDS011;30877;43.706;10.780;2024-03-07T08:59:10;8.13;;;3.35;;
45114;SDS011;30877;43.706;10.780;2024-03-07T09:01:42;4.07;;;2.78;;
45114;SDS011;30877;43.706;10.780;2024-03-07T09:04:13;8.75;;;4.25;;
45114;SDS011;30877;43.706;10.780;2024-03-07T09:06:43;9.60;;;5.00;;
45114;SDS011;30877;43.706;10.780;2024-03-07T09:09:14;15.13;;;8.55;;
45114;SDS011;30877;43.706;10.780;2024-03-07T09:11:46;28.92;;;18.90;;
45114;SDS011;30877;43.706;10.780;2024-03-07T09:14:15;33.95;;;22.77;;
45114;SDS011;30877;43.706;10.780;2024-03-07T09:16:44;26.27;;;15.80;;
45114;SDS011;30877;43.706;10.780;2024-03-07T09:19:17;30.75;;;19.65;;
45114;SDS011;30877;43.706;10.780;2024-03-07T09:21:47;19.40;;;12.82;;
45114;SDS011;30877;43.706;10.780;2024-03-07T09:24:16;18.35;;;12.07;;
45114;SDS011;30877;43.706;10.780;2024-03-07T09:26:47;14.90;;;10.85;;
45114;SDS011;30877;43.706;10.780;2024-03-07T09:29:16;16.80;;;9.88;;
45114;SDS011;30877;43.706;10.780;2024-03-07T09:31:45;11.85;;;7.88;;
45114;SDS011;30877;43.706;10.780;2024-03-07T09:34:17;12.20;;;8.25;;
45114;SDS011;30877;43.706;10.780;2024-03-07T09:36:46;11.85;;;8.38;;
45114;SDS011;30877;43.706;10.780;2024-03-07T09:39:17;13.80;;;9.13;;
45114;SDS011;30877;43.706;10.780;2024-03-07T09:41:47;11.48;;;7.72;;
45114;SDS011;30877;43.706;10.780;2024-03-07T09:44:19;11.55;;;6.75;;
45114;SDS011;30877;43.706;10.780;2024-03-07T09:46:54;8.93;;;5.78;;
45114;SDS011;30877;43.706;10.780;2024-03-07T09:49:26;8.30;;;5.50;;
45114;SDS011;30877;43.706;10.780;2024-03-07T09:51:56;7.03;;;4.57;;
45114;SDS011;30877;43.706;10.780;2024-03-07T09:54:28;6.18;;;4.72;;
45114;SDS011;30877;43.706;10.780;2024-03-07T09:56:59;8.05;;;4.82;;
45114;SDS011;30877;43.706;10.780;2024-03-07T09:59:31;7.07;;;4.75;;
45114;SDS011;30877;43.706;10.780;2024-03-07T10:02:05;6.28;;;4.03;;
45114;SDS011;30877;43.706;10.780;2024-03-07T10:04:38;7.38;;;4.55;;
45114;SDS011;30877;43.706;10.780;2024-03-07T10:07:12;8.68;;;4.38;;
45114;SDS011;30877;43.706;10.780;2024-03-07T10:09:42;7.97;;;3.47;;
45114;SDS011;30877;43.706;10.780;2024-03-07T10:12:16;6.50;;;3.80;;
45114;SDS011;30877;43.706;10.780;2024-03-07T10:14:49;6.95;;;3.78;;
45114;SDS011;30877;43.706;10.780;2024-03-07T10:17:21;8.38;;;4.45;;
45114;SDS011;30877;43.706;10.780;2024-03-07T10:19:55;6.35;;;3.95;;
45114;SDS011;30877;43.706;10.780;2024-03-07T10:22:28;5.72;;;3.80;;
45114;SDS011;30877;43.706;10.780;2024-03-07T10:24:57;5.40;;;3.00;;
45114;SDS011;30877;43.706;10.780;2024-03-07T10:27:27;5.20;;;3.28;;
45114;SDS011;30877;43.706;10.780;2024-03-07T10:29:57;6.65;;;3.22;;
45114;SDS011;30877;43.706;10.780;2024-03-07T10:32:29;4.57;;;2.33;;
45114;SDS011;30877;43.706;10.780;2024-03-07T10:35:01;7.85;;;3.00;;
45114;SDS011;30877;43.706;10.780;2024-03-07T10:37:34;5.43;;;2.28;;
45114;SDS011;30877;43.706;10.780;2024-03-07T10:40:03;6.07;;;2.92;;
45114;SDS011;30877;43.706;10.780;2024-03-07T10:42:47;5.20;;;2.83;;
45114;SDS011;30877;43.706;10.780;2024-03-07T10:45:19;7.60;;;2.92;;
45114;SDS011;30877;43.706;10.780;2024-03-07T10:47:52;4.88;;;2.55;;
45114;SDS011;30877;43.706;10.780;2024-03-07T10:50:29;4.93;;;2.83;;
45114;SDS011;30877;43.706;10.780;2024-03-07T10:53:10;3.47;;;1.90;;
45114;SDS011;30877;43.706;10.780;2024-03-07T10:55:51;5.45;;;2.88;;
45114;SDS011;30877;43.706;10.780;2024-03-07T10:58:35;8.68;;;2.47;;
45114;SDS011;30877;43.706;10.780;2024-03-07T11:01:10;6.53;;;2.40;;
45114;SDS011;30877;43.706;10.780;2024-03-07T11:03:41;5.03;;;2.28;;
45114;SDS011;30877;43.706;10.780;2024-03-07T11:06:10;4.32;;;2.30;;
45114;SDS011;30877;43.706;10.780;2024-03-07T11:08:41;3.97;;;2.08;;
45114;SDS011;30877;43.706;10.780;2024-03-07T11:11:11;4.15;;;1.63;;
45114;SDS011;30877;43.706;10.780;2024-03-07T11:13:43;3.33;;;2.03;;
45114;SDS011;30877;43.706;10.780;2024-03-07T11:16:13;2.92;;;1.73;;
45114;SDS011;30877;43.706;10.780;2024-03-07T11:18:43;2.90;;;1.83;;
45114;SDS011;30877;43.706;10.780;2024-03-07T11:21:48;2.53;;;2.00;;
45114;SDS011;30877;43.706;10.780;2024-03-07T11:24:24;2.97;;;2.10;;
45114;SDS011;30877;43.706;10.780;2024-03-07T11:26:56;5.57;;;2.15;;
45114;SDS011;30877;43.706;10.780;2024-03-07T11:29:42;4.07;;;2.33;;
45114;SDS011;30877;43.706;10.780;2024-03-07T11:32:15;10.43;;;6.72;;
45114;SDS011;30877;43.706;10.780;2024-03-07T11:34:44;5.75;;;3.10;;
45114;SDS011;30877;43.706;10.780;2024-03-07T11:37:17;5.68;;;2.22;;
45114;SDS011;30877;43.706;10.780;2024-03-07T11:39:50;3.83;;;2.08;;
45114;SDS011;30877;43.706;10.780;2024-03-07T11:42:25;4.65;;;2.90;;
45114;SDS011;30877;43.706;10.780;2024-03-07T11:44:57;6.70;;;3.42;;
45114;SDS011;30877;43.706;10.780;2024-03-07T11:47:34;5.47;;;2.80;;
45114;SDS011;30877;43.706;10.780;2024-03-07T11:50:07;3.63;;;1.98;;
45114;SDS011;30877;43.706;10.780;2024-03-07T11:52:39;4.88;;;2.40;;
45114;SDS011;30877;43.706;10.780;2024-03-07T11:55:12;7.05;;;2.42;;
45114;SDS011;30877;43.706;10.780;2024-03-07T11:57:41;5.63;;;2.35;;
45114;SDS011;30877;43.706;10.780;2024-03-07T12:00:15;7.18;;;2.90;;
45114;SDS011;30877;43.706;10.780;2024-03-07T12:02:45;5.93;;;2.15;;
45114;SDS011;30877;43.706;10.780;2024-03-07T12:05:16;6.40;;;2.40;;
45114;SDS011;30877;43.706;10.780;2024-03-07T12:07:45;4.00;;;1.92;;
45114;SDS011;30877;43.706;10.780;2024-03-07T12:10:15;6.63;;;2.20;;
45114;SDS011;30877;43.706;10.780;2024-03-07T12:12:53;5.43;;;1.80;;
45114;SDS011;30877;43.706;10.780;2024-03-07T12:15:26;4.10;;;1.95;;
45114;SDS011;30877;43.706;10.780;2024-03-07T12:17:56;3.75;;;1.80;;
45114;SDS011;30877;43.706;10.780;2024-03-07T12:20:27;4.63;;;1.90;;
45114;SDS011;30877;43.706;10.780;2024-03-07T12:23:03;4.25;;;1.83;;
45114;SDS011;30877;43.706;10.780;2024-03-07T12:25:39;5.38;;;2.92;;
45114;SDS011;30877;43.706;10.780;2024-03-07T12:28:12;4.22;;;2.28;;
45114;SDS011;30877;43.706;10.780;2024-03-07T12:30:50;2.97;;;2.30;;
45114;SDS011;30877;43.706;10.780;2024-03-07T12:33:21;4.38;;;1.98;;
45114;SDS011;30877;43.706;10.780;2024-03-07T12:35:53;5.05;;;1.70;;
45114;SDS011;30877;43.706;10.780;2024-03-07T12:38:34;5.78;;;3.35;;
45114;SDS011;30877;43.706;10.780;2024-03-07T12:41:09;5.05;;;2.50;;
45114;SDS011;30877;43.706;10.780;2024-03-07T12:43:43;5.50;;;2.33;;
45114;SDS011;30877;43.706;10.780;2024-03-07T12:46:19;2.53;;;1.70;;
45114;SDS011;30877;43.706;10.780;2024-03-07T12:48:48;4.82;;;1.65;;
45114;SDS011;30877;43.706;10.780;2024-03-07T12:51:19;3.03;;;1.90;;
45114;SDS011;30877;43.706;10.780;2024-03-07T12:53:51;5.57;;;1.77;;
45114;SDS011;30877;43.706;10.780;2024-03-07T12:56:22;3.55;;;1.58;;
45114;SDS011;30877;43.706;10.780;2024-03-07T12:58:51;3.17;;;1.25;;
45114;SDS011;30877;43.706;10.780;2024-03-07T13:01:23;3.88;;;1.58;;
45114;SDS011;30877;43.706;10.780;2024-03-07T13:03:52;4.00;;;1.58;;
45114;SDS011;30877;43.706;10.780;2024-03-07T13:06:22;3.25;;;1.40;;
45114;SDS011;30877;43.706;10.780;2024-03-07T13:08:57;4.90;;;1.30;;
45114;SDS011;30877;43.706;10.780;2024-03-07T13:11:26;1.85;;;1.10;;
45114;SDS011;30877;43.706;10.780;2024-03-07T13:13:57;6.00;;;2.45;;
45114;SDS011;30877;43.706;10.780;2024-03-07T13:16:29;2.67;;;1.70;;
45114;SDS011;30877;43.706;10.780;2024-03-07T13:18:59;3.17;;;1.48;;
45114;SDS011;30877;43.706;10.780;2024-03-07T13:21:33;2.72;;;1.25;;
45114;SDS011;30877;43.706;10.780;2024-03-07T13:24:02;2.40;;;1.15;;
45114;SDS011;30877;43.706;10.780;2024-03-07T13:26:32;2.45;;;1.02;;
45114;SDS011;30877;43.706;10.780;2024-03-07T13:29:04;4.80;;;1.42;;
45114;SDS011;30877;43.706;10.780;2024-03-07T13:31:34;5.47;;;1.60;;
45114;SDS011;30877;43.706;10.780;2024-03-07T13:34:04;3.35;;;1.20;;
45114;SDS011;30877;43.706;10.780;2024-03-07T13:36:34;2.60;;;1.02;;
45114;SDS011;30877;43.706;10.780;2024-03-07T13:39:05;1.73;;;1.05;;
45114;SDS011;30877;43.706;10.780;2024-03-07T13:41:38;2.53;;;1.17;;
45114;SDS011;30877;43.706;10.780;2024-03-07T13:44:08;5.30;;;1.83;;
45114;SDS011;30877;43.706;10.780;2024-03-07T13:46:38;2.40;;;1.10;;
45114;SDS011;30877;43.706;10.780;2024-03-07T13:49:08;1.77;;;1.05;;
45114;SDS011;30877;43.706;10.780;2024-03-07T13:51:44;6.88;;;1.42;;
45114;SDS011;30877;43.706;10.780;2024-03-07T13:54:20;3.53;;;1.10;;
45114;SDS011;30877;43.706;10.780;2024-03-07T13:57:05;2.42;;;1.10;;
45114;SDS011;30877;43.706;10.780;2024-03-07T13:59:57;1.52;;;0.93;;
45114;SDS011;30877;43.706;10.780;2024-03-07T14:08:53;3.75;;;0.95;;
45114;SDS011;30877;43.706;10.780;2024-03-07T14:21:52;1.42;;;0.65;;
45114;SDS011;30877;43.706;10.780;2024-03-07T14:28:05;1.83;;;0.65;;
45114;SDS011;30877;43.706;10.780;2024-03-07T14:30:56;2.50;;;0.90;;
45114;SDS011;30877;43.706;10.780;2024-03-07T14:33:27;3.55;;;1.00;;
45114;SDS011;30877;43.706;10.780;2024-03-07T14:36:02;5.93;;;1.25;;
45114;SDS011;30877;43.706;10.780;2024-03-07T14:38:43;2.58;;;0.85;;
45114;SDS011;30877;43.706;10.780;2024-03-07T14:41:17;2.83;;;0.90;;
45114;SDS011;30877;43.706;10.780;2024-03-07T14:43:50;3.78;;;0.60;;
45114;SDS011;30877;43.706;10.780;2024-03-07T14:46:20;4.97;;;2.53;;
45114;SDS011;30877;43.706;10.780;2024-03-07T14:48:49;4.22;;;3.08;;
45114;SDS011;30877;43.706;10.780;2024-03-07T14:51:19;3.13;;;1.02;;
45114;SDS011;30877;43.706;10.780;2024-03-07T14:53:49;2.50;;;0.82;;
45114;SDS011;30877;43.706;10.780;2024-03-07T14:56:19;2.13;;;0.63;;
45114;SDS011;30877;43.706;10.780;2024-03-07T14:58:50;2.65;;;0.80;;
45114;SDS011;30877;43.706;10.780;2024-03-07T15:01:19;1.70;;;0.50;;
45114;SDS011;30877;43.706;10.780;2024-03-07T15:03:47;5.22;;;0.70;;
45114;SDS011;30877;43.706;10.780;2024-03-07T15:06:16;2.13;;;0.82;;
45114;SDS011;30877;43.706;10.780;2024-03-07T15:08:45;4.65;;;1.30;;
45114;SDS011;30877;43.706;10.780;2024-03-07T15:11:19;1.65;;;0.65;;
45114;SDS011;30877;43.706;10.780;2024-03-07T15:13:54;1.60;;;0.80;;
45114;SDS011;30877;43.706;10.780;2024-03-07T15:16:24;2.88;;;1.75;;
45114;SDS011;30877;43.706;10.780;2024-03-07T15:19:02;2.10;;;0.80;;